sensor_id;sensor_type;location;lat;lon;timestamp;P1;durP1;ratioP1;P2;durP2;ratioP2
42478;SDS011;28110;47.080;9.476;2023-11-21T00:00:12;5.40;;;1.20;;
42478;SDS011;28110;47.080;9.476;2023-11-21T00:02:39;5.03;;;1.88;;
42478;SDS011;28110;47.080;9.476;2023-11-21T00:05:06;7.67;;;1.70;;
42478;SDS011;28110;47.080;9.476;2023-11-21T00:07:33;5.93;;;2.10;;
42478;SDS011;28110;47.080;9.476;2023-11-21T00:09:58;6.63;;;2.15;;
42478;SDS011;28110;47.080;9.476;2023-11-21T00:12:24;6.53;;;2.27;;
42478;SDS011;28110;47.080;9.476;2023-11-21T00:14:50;3.87;;;1.60;;
42478;SDS011;28110;47.080;9.476;2023-11-21T00:17:15;5.82;;;1.77;;
42478;SDS011;28110;47.080;9.476;2023-11-21T00:19:41;6.77;;;2.00;;
42478;SDS011;28110;47.080;9.476;2023-11-21T00:22:08;8.43;;;1.95;;
42478;SDS011;28110;47.080;9.476;2023-11-21T00:24:34;7.20;;;2.40;;
42478;SDS011;28110;47.080;9.476;2023-11-21T00:27:00;6.15;;;1.65;;
42478;SDS011;28110;47.080;9.476;2023-11-21T00:29:25;6.93;;;1.67;;
42478;SDS011;28110;47.080;9.476;2023-11-21T00:31:51;4.50;;;1.47;;
42478;SDS011;28110;47.080;9.476;2023-11-21T00:34:16;6.45;;;1.48;;
42478;SDS011;28110;47.080;9.476;2023-11-21T00:36:42;4.07;;;1.27;;
42478;SDS011;28110;47.080;9.476;2023-11-21T00:39:08;5.30;;;1.20;;
42478;SDS011;28110;47.080;9.476;2023-11-21T00:41:33;4.35;;;0.95;;
42478;SDS011;28110;47.080;9.476;2023-11-21T00:44:00;3.13;;;0.97;;
42478;SDS011;28110;47.080;9.476;2023-11-21T00:46:25;6.35;;;1.15;;
42478;SDS011;28110;47.080;9.476;2023-11-21T00:48:54;2.65;;;0.98;;
42478;SDS011;28110;47.080;9.476;2023-11-21T00:51:20;7.55;;;1.30;;
42478;SDS011;28110;47.080;9.476;2023-11-21T00:53:47;5.65;;;1.58;;
42478;SDS011;28110;47.080;9.476;2023-11-21T00:56:12;3.53;;;1.57;;
42478;SDS011;28110;47.080;9.476;2023-11-21T00:58:38;3.60;;;1.85;;
42478;SDS011;28110;47.080;9.476;2023-11-21T01:01:04;2.33;;;1.20;;
42478;SDS011;28110;47.080;9.476;2023-11-21T01:03:29;9.90;;;2.35;;
42478;SDS011;28110;47.080;9.476;2023-11-21T01:05:55;5.23;;;1.17;;
42478;SDS011;28110;47.080;9.476;2023-11-21T01:08:21;3.55;;;1.40;;
42478;SDS011;28110;47.080;9.476;2023-11-21T01:10:46;4.00;;;1.40;;
42478;SDS011;28110;47.080;9.476;2023-11-21T01:13:12;3.00;;;1.30;;
42478;SDS011;28110;47.080;9.476;2023-11-21T01:15:40;4.15;;;1.40;;
42478;SDS011;28110;47.080;9.476;2023-11-21T01:18:06;2.70;;;1.20;;
42478;SDS011;28110;47.080;9.476;2023-11-21T01:20:33;4.57;;;1.40;;
42478;SDS011;28110;47.080;9.476;2023-11-21T01:22:59;5.13;;;1.10;;
42478;SDS011;28110;47.080;9.476;2023-11-21T01:25:25;6.20;;;1.63;;
42478;SDS011;28110;47.080;9.476;2023-11-21T01:27:50;4.05;;;1.40;;
42478;SDS011;28110;47.080;9.476;2023-11-21T01:30:16;5.07;;;1.50;;
42478;SDS011;28110;47.080;9.476;2023-11-21T01:32:42;4.97;;;1.70;;
42478;SDS011;28110;47.080;9.476;2023-11-21T01:35:08;5.82;;;1.88;;
42478;SDS011;28110;47.080;9.476;2023-11-21T01:37:35;5.43;;;1.87;;
42478;SDS011;28110;47.080;9.476;2023-11-21T01:40:04;5.22;;;1.30;;
42478;SDS011;28110;47.080;9.476;2023-11-21T01:42:34;4.95;;;1.45;;
42478;SDS011;28110;47.080;9.476;2023-11-21T01:45:00;4.93;;;1.33;;
42478;SDS011;28110;47.080;9.476;2023-11-21T01:47:28;4.13;;;1.40;;
42478;SDS011;28110;47.080;9.476;2023-11-21T01:49:55;6.80;;;1.38;;
42478;SDS011;28110;47.080;9.476;2023-11-21T01:52:20;3.33;;;1.10;;
42478;SDS011;28110;47.080;9.476;2023-11-21T01:54:46;5.65;;;1.23;;
42478;SDS011;28110;47.080;9.476;2023-11-21T01:57:12;5.75;;;1.38;;
42478;SDS011;28110;47.080;9.476;2023-11-21T01:59:38;5.57;;;1.20;;
42478;SDS011;28110;47.080;9.476;2023-11-21T02:02:07;4.20;;;1.30;;
42478;SDS011;28110;47.080;9.476;2023-11-21T02:04:33;2.22;;;1.02;;
42478;SDS011;28110;47.080;9.476;2023-11-21T02:07:02;4.03;;;1.90;;
42478;SDS011;28110;47.080;9.476;2023-11-21T02:09:31;6.80;;;1.57;;
42478;SDS011;28110;47.080;9.476;2023-11-21T02:11:58;5.63;;;1.20;;
42478;SDS011;28110;47.080;9.476;2023-11-21T02:14:25;4.43;;;1.58;;
42478;SDS011;28110;47.080;9.476;2023-11-21T02:16:52;2.88;;;1.27;;
42478;SDS011;28110;47.080;9.476;2023-11-21T02:19:19;4.30;;;1.67;;
42478;SDS011;28110;47.080;9.476;2023-11-21T02:21:47;6.73;;;1.20;;
42478;SDS011;28110;47.080;9.476;2023-11-21T02:24:14;5.03;;;1.30;;
42478;SDS011;28110;47.080;9.476;2023-11-21T02:26:40;3.55;;;1.10;;
42478;SDS011;28110;47.080;9.476;2023-11-21T02:29:06;3.47;;;1.27;;
42478;SDS011;28110;47.080;9.476;2023-11-21T02:31:35;2.92;;;1.25;;
42478;SDS011;28110;47.080;9.476;2023-11-21T02:34:03;3.80;;;1.33;;
42478;SDS011;28110;47.080;9.476;2023-11-21T02:36:30;4.00;;;1.60;;
42478;SDS011;28110;47.080;9.476;2023-11-21T02:38:56;5.90;;;1.70;;
42478;SDS011;28110;47.080;9.476;2023-11-21T02:41:21;3.87;;;1.70;;
42478;SDS011;28110;47.080;9.476;2023-11-21T02:43:47;4.70;;;2.00;;
42478;SDS011;28110;47.080;9.476;2023-11-21T02:46:12;3.40;;;1.40;;
42478;SDS011;28110;47.080;9.476;2023-11-21T02:48:38;3.37;;;1.60;;
42478;SDS011;28110;47.080;9.476;2023-11-21T02:51:03;3.23;;;1.90;;
42478;SDS011;28110;47.080;9.476;2023-11-21T02:53:29;6.40;;;1.60;;
42478;SDS011;28110;47.080;9.476;2023-11-21T02:55:54;3.60;;;1.70;;
42478;SDS011;28110;47.080;9.476;2023-11-21T02:58:20;6.55;;;2.50;;
42478;SDS011;28110;47.080;9.476;2023-11-21T03:00:46;2.70;;;1.73;;
42478;SDS011;28110;47.080;9.476;2023-11-21T03:03:11;5.40;;;1.92;;
42478;SDS011;28110;47.080;9.476;2023-11-21T03:05:37;3.13;;;1.70;;
42478;SDS011;28110;47.080;9.476;2023-11-21T03:08:03;4.28;;;1.75;;
42478;SDS011;28110;47.080;9.476;2023-11-21T03:10:29;4.83;;;1.80;;
42478;SDS011;28110;47.080;9.476;2023-11-21T03:12:54;4.15;;;1.77;;
42478;SDS011;28110;47.080;9.476;2023-11-21T03:15:20;3.73;;;1.63;;
42478;SDS011;28110;47.080;9.476;2023-11-21T03:17:45;5.63;;;1.80;;
42478;SDS011;28110;47.080;9.476;2023-11-21T03:20:13;4.88;;;1.70;;
42478;SDS011;28110;47.080;9.476;2023-11-21T03:22:41;4.18;;;1.88;;
42478;SDS011;28110;47.080;9.476;2023-11-21T03:25:07;4.43;;;1.50;;
42478;SDS011;28110;47.080;9.476;2023-11-21T03:27:36;7.45;;;1.83;;
42478;SDS011;28110;47.080;9.476;2023-11-21T03:30:02;5.95;;;1.55;;
42478;SDS011;28110;47.080;9.476;2023-11-21T03:32:28;2.10;;;1.30;;
42478;SDS011;28110;47.080;9.476;2023-11-21T03:34:55;4.80;;;1.20;;
42478;SDS011;28110;47.080;9.476;2023-11-21T03:37:22;5.05;;;1.20;;
42478;SDS011;28110;47.080;9.476;2023-11-21T03:39:48;3.50;;;1.50;;
42478;SDS011;28110;47.080;9.476;2023-11-21T03:42:13;3.10;;;1.60;;
42478;SDS011;28110;47.080;9.476;2023-11-21T03:44:39;4.43;;;1.60;;
42478;SDS011;28110;47.080;9.476;2023-11-21T03:47:04;4.50;;;1.47;;
42478;SDS011;28110;47.080;9.476;2023-11-21T03:49:30;3.15;;;1.48;;
42478;SDS011;28110;47.080;9.476;2023-11-21T03:51:56;5.53;;;1.80;;
42478;SDS011;28110;47.080;9.476;2023-11-21T03:54:21;3.37;;;1.57;;
42478;SDS011;28110;47.080;9.476;2023-11-21T03:56:47;5.95;;;2.10;;
42478;SDS011;28110;47.080;9.476;2023-11-21T03:59:12;6.23;;;2.20;;
42478;SDS011;28110;47.080;9.476;2023-11-21T04:01:38;3.10;;;1.70;;
42478;SDS011;28110;47.080;9.476;2023-11-21T04:04:03;3.63;;;1.70;;
42478;SDS011;28110;47.080;9.476;2023-11-21T04:06:29;5.00;;;1.85;;
42478;SDS011;28110;47.080;9.476;2023-11-21T04:08:54;4.37;;;2.43;;
42478;SDS011;28110;47.080;9.476;2023-11-21T04:11:20;3.90;;;1.60;;
42478;SDS011;28110;47.080;9.476;2023-11-21T04:13:46;7.13;;;2.30;;
42478;SDS011;28110;47.080;9.476;2023-11-21T04:16:11;4.93;;;2.05;;
42478;SDS011;28110;47.080;9.476;2023-11-21T04:18:38;5.40;;;2.47;;
42478;SDS011;28110;47.080;9.476;2023-11-21T04:21:04;4.90;;;2.05;;
42478;SDS011;28110;47.080;9.476;2023-11-21T04:23:30;4.40;;;2.00;;
42478;SDS011;28110;47.080;9.476;2023-11-21T04:26:00;5.20;;;2.17;;
42478;SDS011;28110;47.080;9.476;2023-11-21T04:28:27;3.33;;;1.80;;
42478;SDS011;28110;47.080;9.476;2023-11-21T04:30:53;4.13;;;1.77;;
42478;SDS011;28110;47.080;9.476;2023-11-21T04:33:19;7.17;;;2.47;;
42478;SDS011;28110;47.080;9.476;2023-11-21T04:35:44;6.45;;;2.00;;
42478;SDS011;28110;47.080;9.476;2023-11-21T04:38:11;5.03;;;1.85;;
42478;SDS011;28110;47.080;9.476;2023-11-21T04:40:36;5.43;;;1.80;;
42478;SDS011;28110;47.080;9.476;2023-11-21T04:43:02;3.63;;;1.93;;
42478;SDS011;28110;47.080;9.476;2023-11-21T04:45:29;4.38;;;1.90;;
42478;SDS011;28110;47.080;9.476;2023-11-21T04:47:54;2.73;;;1.57;;
42478;SDS011;28110;47.080;9.476;2023-11-21T04:50:20;3.85;;;1.88;;
42478;SDS011;28110;47.080;9.476;2023-11-21T04:52:45;5.67;;;1.87;;
42478;SDS011;28110;47.080;9.476;2023-11-21T04:55:11;4.50;;;2.13;;
42478;SDS011;28110;47.080;9.476;2023-11-21T04:57:36;6.45;;;2.60;;
42478;SDS011;28110;47.080;9.476;2023-11-21T05:00:02;4.87;;;2.20;;
42478;SDS011;28110;47.080;9.476;2023-11-21T05:02:30;3.45;;;2.10;;
42478;SDS011;28110;47.080;9.476;2023-11-21T05:05:00;5.60;;;2.15;;
42478;SDS011;28110;47.080;9.476;2023-11-21T05:07:25;7.10;;;2.07;;
42478;SDS011;28110;47.080;9.476;2023-11-21T05:09:54;6.35;;;2.00;;
42478;SDS011;28110;47.080;9.476;2023-11-21T05:12:21;9.15;;;3.95;;
42478;SDS011;28110;47.080;9.476;2023-11-21T05:14:48;12.65;;;3.80;;
42478;SDS011;28110;47.080;9.476;2023-11-21T05:17:14;8.18;;;3.22;;
42478;SDS011;28110;47.080;9.476;2023-11-21T05:19:39;5.95;;;3.05;;
42478;SDS011;28110;47.080;9.476;2023-11-21T05:22:06;8.05;;;4.10;;
42478;SDS011;28110;47.080;9.476;2023-11-21T05:24:31;6.07;;;2.83;;
42478;SDS011;28110;47.080;9.476;2023-11-21T05:26:57;5.40;;;2.83;;
42478;SDS011;28110;47.080;9.476;2023-11-21T05:29:22;6.97;;;2.75;;
42478;SDS011;28110;47.080;9.476;2023-11-21T05:31:48;4.77;;;2.93;;
42478;SDS011;28110;47.080;9.476;2023-11-21T05:34:14;5.53;;;2.60;;
42478;SDS011;28110;47.080;9.476;2023-11-21T05:36:42;8.70;;;3.15;;
42478;SDS011;28110;47.080;9.476;2023-11-21T05:39:08;6.22;;;3.78;;
42478;SDS011;28110;47.080;9.476;2023-11-21T05:41:36;4.53;;;3.30;;
42478;SDS011;28110;47.080;9.476;2023-11-21T05:44:01;6.47;;;3.10;;
42478;SDS011;28110;47.080;9.476;2023-11-21T05:46:27;5.43;;;2.90;;
42478;SDS011;28110;47.080;9.476;2023-11-21T05:48:53;7.78;;;3.35;;
42478;SDS011;28110;47.080;9.476;2023-11-21T05:51:18;7.40;;;3.10;;
42478;SDS011;28110;47.080;9.476;2023-11-21T05:53:44;7.97;;;3.47;;
42478;SDS011;28110;47.080;9.476;2023-11-21T05:56:09;5.65;;;3.13;;
42478;SDS011;28110;47.080;9.476;2023-11-21T05:58:35;5.33;;;2.90;;
42478;SDS011;28110;47.080;9.476;2023-11-21T06:01:01;7.83;;;3.10;;
42478;SDS011;28110;47.080;9.476;2023-11-21T06:03:28;7.30;;;2.55;;
42478;SDS011;28110;47.080;9.476;2023-11-21T06:05:53;4.80;;;2.88;;
42478;SDS011;28110;47.080;9.476;2023-11-21T06:08:19;5.40;;;2.60;;
42478;SDS011;28110;47.080;9.476;2023-11-21T06:10:44;7.20;;;3.30;;
42478;SDS011;28110;47.080;9.476;2023-11-21T06:13:10;5.30;;;2.58;;
42478;SDS011;28110;47.080;9.476;2023-11-21T06:15:35;4.43;;;2.70;;
42478;SDS011;28110;47.080;9.476;2023-11-21T06:18:01;5.00;;;2.57;;
42478;SDS011;28110;47.080;9.476;2023-11-21T06:20:27;6.05;;;3.45;;
42478;SDS011;28110;47.080;9.476;2023-11-21T06:22:52;5.43;;;3.90;;
42478;SDS011;28110;47.080;9.476;2023-11-21T06:25:18;6.43;;;3.65;;
42478;SDS011;28110;47.080;9.476;2023-11-21T06:27:45;6.15;;;3.47;;
42478;SDS011;28110;47.080;9.476;2023-11-21T06:30:12;5.57;;;3.83;;
42478;SDS011;28110;47.080;9.476;2023-11-21T06:32:40;9.20;;;4.07;;
42478;SDS011;28110;47.080;9.476;2023-11-21T06:35:06;7.85;;;3.97;;
42478;SDS011;28110;47.080;9.476;2023-11-21T06:37:33;8.05;;;3.70;;
42478;SDS011;28110;47.080;9.476;2023-11-21T06:39:59;6.53;;;3.10;;
42478;SDS011;28110;47.080;9.476;2023-11-21T06:42:25;8.75;;;3.58;;
42478;SDS011;28110;47.080;9.476;2023-11-21T06:44:51;6.57;;;3.20;;
42478;SDS011;28110;47.080;9.476;2023-11-21T06:47:18;7.45;;;3.53;;
42478;SDS011;28110;47.080;9.476;2023-11-21T06:49:49;6.00;;;3.00;;
42478;SDS011;28110;47.080;9.476;2023-11-21T06:52:15;5.30;;;3.08;;
42478;SDS011;28110;47.080;9.476;2023-11-21T06:54:41;6.82;;;3.55;;
42478;SDS011;28110;47.080;9.476;2023-11-21T06:57:07;8.05;;;3.25;;
42478;SDS011;28110;47.080;9.476;2023-11-21T06:59:32;6.57;;;3.03;;
42478;SDS011;28110;47.080;9.476;2023-11-21T07:01:58;6.40;;;3.90;;
42478;SDS011;28110;47.080;9.476;2023-11-21T07:04:24;6.17;;;3.87;;
42478;SDS011;28110;47.080;9.476;2023-11-21T07:06:51;12.65;;;4.80;;
42478;SDS011;28110;47.080;9.476;2023-11-21T07:09:18;7.68;;;3.90;;
42478;SDS011;28110;47.080;9.476;2023-11-21T07:11:46;8.85;;;4.50;;
42478;SDS011;28110;47.080;9.476;2023-11-21T07:14:13;10.43;;;4.43;;
42478;SDS011;28110;47.080;9.476;2023-11-21T07:16:39;10.30;;;4.60;;
42478;SDS011;28110;47.080;9.476;2023-11-21T07:19:05;8.85;;;4.05;;
42478;SDS011;28110;47.080;9.476;2023-11-21T07:21:31;10.17;;;3.43;;
42478;SDS011;28110;47.080;9.476;2023-11-21T07:23:58;9.68;;;3.53;;
42478;SDS011;28110;47.080;9.476;2023-11-21T07:26:24;9.63;;;3.20;;
42478;SDS011;28110;47.080;9.476;2023-11-21T07:28:50;9.18;;;3.25;;
42478;SDS011;28110;47.080;9.476;2023-11-21T07:31:16;18.10;;;4.30;;
42478;SDS011;28110;47.080;9.476;2023-11-21T07:33:41;10.87;;;4.03;;
42478;SDS011;28110;47.080;9.476;2023-11-21T07:36:07;10.30;;;4.32;;
42478;SDS011;28110;47.080;9.476;2023-11-21T07:38:33;9.07;;;4.57;;
42478;SDS011;28110;47.080;9.476;2023-11-21T07:40:59;11.80;;;5.90;;
42478;SDS011;28110;47.080;9.476;2023-11-21T07:43:26;9.75;;;5.25;;
42478;SDS011;28110;47.080;9.476;2023-11-21T07:45:52;11.07;;;4.13;;
42478;SDS011;28110;47.080;9.476;2023-11-21T07:48:17;6.93;;;4.20;;
42478;SDS011;28110;47.080;9.476;2023-11-21T07:50:43;8.77;;;4.43;;
42478;SDS011;28110;47.080;9.476;2023-11-21T07:53:08;8.73;;;4.30;;
42478;SDS011;28110;47.080;9.476;2023-11-21T07:55:34;10.35;;;4.38;;
42478;SDS011;28110;47.080;9.476;2023-11-21T07:58:01;13.00;;;4.70;;
42478;SDS011;28110;47.080;9.476;2023-11-21T08:00:26;9.93;;;5.10;;
42478;SDS011;28110;47.080;9.476;2023-11-21T08:02:55;11.20;;;4.53;;
42478;SDS011;28110;47.080;9.476;2023-11-21T08:05:20;9.20;;;5.75;;
42478;SDS011;28110;47.080;9.476;2023-11-21T08:07:46;12.90;;;4.85;;
42478;SDS011;28110;47.080;9.476;2023-11-21T08:10:12;13.57;;;5.30;;
42478;SDS011;28110;47.080;9.476;2023-11-21T08:12:37;10.48;;;4.15;;
42478;SDS011;28110;47.080;9.476;2023-11-21T08:15:03;11.47;;;4.17;;
42478;SDS011;28110;47.080;9.476;2023-11-21T08:17:30;10.07;;;3.67;;
42478;SDS011;28110;47.080;9.476;2023-11-21T08:19:57;13.55;;;3.58;;
42478;SDS011;28110;47.080;9.476;2023-11-21T08:22:23;12.87;;;3.70;;
42478;SDS011;28110;47.080;9.476;2023-11-21T08:24:50;9.43;;;3.50;;
42478;SDS011;28110;47.080;9.476;2023-11-21T08:27:15;8.27;;;3.30;;
42478;SDS011;28110;47.080;9.476;2023-11-21T08:29:41;13.32;;;4.97;;
42478;SDS011;28110;47.080;9.476;2023-11-21T08:32:07;9.35;;;3.28;;
42478;SDS011;28110;47.080;9.476;2023-11-21T08:34:33;8.73;;;2.83;;
42478;SDS011;28110;47.080;9.476;2023-11-21T08:36:58;14.27;;;4.32;;
42478;SDS011;28110;47.080;9.476;2023-11-21T08:39:24;16.30;;;3.50;;
42478;SDS011;28110;47.080;9.476;2023-11-21T08:41:52;11.43;;;3.70;;
42478;SDS011;28110;47.080;9.476;2023-11-21T08:44:18;12.20;;;3.20;;
42478;SDS011;28110;47.080;9.476;2023-11-21T08:46:44;10.20;;;3.00;;
42478;SDS011;28110;47.080;9.476;2023-11-21T08:49:12;6.82;;;2.80;;
42478;SDS011;28110;47.080;9.476;2023-11-21T08:51:40;7.93;;;2.83;;
42478;SDS011;28110;47.080;9.476;2023-11-21T08:54:06;12.93;;;2.93;;
42478;SDS011;28110;47.080;9.476;2023-11-21T08:56:33;8.48;;;2.30;;
42478;SDS011;28110;47.080;9.476;2023-11-21T08:59:00;8.80;;;2.75;;
42478;SDS011;28110;47.080;9.476;2023-11-21T09:01:27;11.10;;;2.22;;
42478;SDS011;28110;47.080;9.476;2023-11-21T09:03:58;8.30;;;2.53;;
42478;SDS011;28110;47.080;9.476;2023-11-21T09:06:24;7.47;;;2.60;;
42478;SDS011;28110;47.080;9.476;2023-11-21T09:08:50;10.80;;;2.40;;
42478;SDS011;28110;47.080;9.476;2023-11-21T09:11:15;9.00;;;2.00;;
42478;SDS011;28110;47.080;9.476;2023-11-21T09:13:41;5.75;;;2.22;;
42478;SDS011;28110;47.080;9.476;2023-11-21T09:16:07;7.30;;;2.37;;
42478;SDS011;28110;47.080;9.476;2023-11-21T09:18:33;6.10;;;2.15;;
42478;SDS011;28110;47.080;9.476;2023-11-21T09:20:59;7.00;;;2.55;;
42478;SDS011;28110;47.080;9.476;2023-11-21T09:23:24;4.55;;;2.25;;
42478;SDS011;28110;47.080;9.476;2023-11-21T09:25:50;7.13;;;2.50;;
42478;SDS011;28110;47.080;9.476;2023-11-21T09:28:17;4.57;;;2.40;;
42478;SDS011;28110;47.080;9.476;2023-11-21T09:30:42;6.43;;;2.45;;
42478;SDS011;28110;47.080;9.476;2023-11-21T09:33:08;5.90;;;2.53;;
42478;SDS011;28110;47.080;9.476;2023-11-21T09:35:35;6.40;;;2.60;;
42478;SDS011;28110;47.080;9.476;2023-11-21T09:38:04;9.63;;;2.40;;
42478;SDS011;28110;47.080;9.476;2023-11-21T09:40:35;7.05;;;2.40;;
42478;SDS011;28110;47.080;9.476;2023-11-21T09:43:02;8.03;;;2.73;;
42478;SDS011;28110;47.080;9.476;2023-11-21T09:45:46;8.93;;;2.50;;
42478;SDS011;28110;47.080;9.476;2023-11-21T09:48:13;7.05;;;2.50;;
42478;SDS011;28110;47.080;9.476;2023-11-21T09:50:41;6.72;;;2.67;;
42478;SDS011;28110;47.080;9.476;2023-11-21T09:55:46;8.43;;;1.90;;
42478;SDS011;28110;47.080;9.476;2023-11-21T09:58:13;9.60;;;2.40;;
42478;SDS011;28110;47.080;9.476;2023-11-21T10:00:43;7.32;;;2.47;;
42478;SDS011;28110;47.080;9.476;2023-11-21T10:03:10;7.28;;;2.40;;
42478;SDS011;28110;47.080;9.476;2023-11-21T10:05:36;7.05;;;2.25;;
42478;SDS011;28110;47.080;9.476;2023-11-21T10:08:09;10.30;;;3.37;;
42478;SDS011;28110;47.080;9.476;2023-11-21T10:10:36;4.90;;;2.63;;
42478;SDS011;28110;47.080;9.476;2023-11-21T10:13:04;6.57;;;2.67;;
42478;SDS011;28110;47.080;9.476;2023-11-21T10:15:33;6.35;;;2.28;;
42478;SDS011;28110;47.080;9.476;2023-11-21T10:17:59;7.60;;;2.13;;
42478;SDS011;28110;47.080;9.476;2023-11-21T10:20:34;5.20;;;2.07;;
42478;SDS011;28110;47.080;9.476;2023-11-21T10:23:00;7.22;;;2.10;;
42478;SDS011;28110;47.080;9.476;2023-11-21T10:25:29;7.80;;;1.80;;
42478;SDS011;28110;47.080;9.476;2023-11-21T10:27:59;4.97;;;1.57;;
42478;SDS011;28110;47.080;9.476;2023-11-21T10:30:33;3.75;;;1.42;;
42478;SDS011;28110;47.080;9.476;2023-11-21T10:33:02;3.55;;;1.65;;
42478;SDS011;28110;47.080;9.476;2023-11-21T10:38:15;6.15;;;2.15;;
42478;SDS011;28110;47.080;9.476;2023-11-21T10:40:47;3.90;;;1.67;;
42478;SDS011;28110;47.080;9.476;2023-11-21T10:43:14;5.90;;;2.30;;
42478;SDS011;28110;47.080;9.476;2023-11-21T10:45:40;8.32;;;2.33;;
42478;SDS011;28110;47.080;9.476;2023-11-21T10:48:10;9.35;;;3.05;;
42478;SDS011;28110;47.080;9.476;2023-11-21T10:50:42;6.72;;;2.10;;
42478;SDS011;28110;47.080;9.476;2023-11-21T10:53:11;5.10;;;1.70;;
42478;SDS011;28110;47.080;9.476;2023-11-21T10:55:38;7.82;;;2.05;;
42478;SDS011;28110;47.080;9.476;2023-11-21T10:58:04;4.35;;;1.70;;
42478;SDS011;28110;47.080;9.476;2023-11-21T11:00:31;6.80;;;1.88;;
42478;SDS011;28110;47.080;9.476;2023-11-21T11:02:57;7.50;;;3.65;;
42478;SDS011;28110;47.080;9.476;2023-11-21T11:05:24;6.40;;;3.50;;
42478;SDS011;28110;47.080;9.476;2023-11-21T11:07:52;3.53;;;2.10;;
42478;SDS011;28110;47.080;9.476;2023-11-21T11:10:26;6.57;;;3.65;;
42478;SDS011;28110;47.080;9.476;2023-11-21T11:12:53;6.88;;;2.55;;
42478;SDS011;28110;47.080;9.476;2023-11-21T11:15:20;5.07;;;1.80;;
42478;SDS011;28110;47.080;9.476;2023-11-21T11:17:46;3.80;;;1.90;;
42478;SDS011;28110;47.080;9.476;2023-11-21T11:20:13;6.95;;;2.05;;
42478;SDS011;28110;47.080;9.476;2023-11-21T11:22:50;3.08;;;1.90;;
42478;SDS011;28110;47.080;9.476;2023-11-21T11:28:27;5.05;;;2.33;;
42478;SDS011;28110;47.080;9.476;2023-11-21T11:31:21;5.03;;;1.77;;
42478;SDS011;28110;47.080;9.476;2023-11-21T11:34:17;4.35;;;1.85;;
42478;SDS011;28110;47.080;9.476;2023-11-21T11:37:05;3.67;;;1.83;;
42478;SDS011;28110;47.080;9.476;2023-11-21T11:39:38;4.32;;;2.00;;
42478;SDS011;28110;47.080;9.476;2023-11-21T11:42:07;6.25;;;1.90;;
42478;SDS011;28110;47.080;9.476;2023-11-21T11:47:14;4.75;;;1.52;;
42478;SDS011;28110;47.080;9.476;2023-11-21T11:52:33;5.10;;;1.77;;
42478;SDS011;28110;47.080;9.476;2023-11-21T11:55:05;4.70;;;2.17;;
42478;SDS011;28110;47.080;9.476;2023-11-21T11:57:35;7.63;;;1.93;;
42478;SDS011;28110;47.080;9.476;2023-11-21T12:00:07;4.35;;;1.70;;
42478;SDS011;28110;47.080;9.476;2023-11-21T12:02:41;5.28;;;2.45;;
42478;SDS011;28110;47.080;9.476;2023-11-21T12:05:10;4.70;;;1.98;;
42478;SDS011;28110;47.080;9.476;2023-11-21T12:07:45;6.05;;;3.10;;
42478;SDS011;28110;47.080;9.476;2023-11-21T12:10:40;3.83;;;2.10;;
42478;SDS011;28110;47.080;9.476;2023-11-21T12:13:06;3.47;;;1.83;;
42478;SDS011;28110;47.080;9.476;2023-11-21T12:15:33;4.25;;;2.03;;
42478;SDS011;28110;47.080;9.476;2023-11-21T12:18:00;5.60;;;2.15;;
42478;SDS011;28110;47.080;9.476;2023-11-21T12:20:26;6.37;;;2.37;;
42478;SDS011;28110;47.080;9.476;2023-11-21T12:22:53;4.85;;;2.10;;
42478;SDS011;28110;47.080;9.476;2023-11-21T12:25:20;5.13;;;1.83;;
42478;SDS011;28110;47.080;9.476;2023-11-21T12:27:50;4.55;;;2.80;;
42478;SDS011;28110;47.080;9.476;2023-11-21T12:30:18;4.97;;;2.17;;
42478;SDS011;28110;47.080;9.476;2023-11-21T12:32:50;9.25;;;3.10;;
42478;SDS011;28110;47.080;9.476;2023-11-21T12:35:17;5.72;;;2.75;;
42478;SDS011;28110;47.080;9.476;2023-11-21T12:37:46;5.30;;;2.63;;
42478;SDS011;28110;47.080;9.476;2023-11-21T12:40:13;8.10;;;2.38;;
42478;SDS011;28110;47.080;9.476;2023-11-21T12:42:43;2.28;;;1.45;;
42478;SDS011;28110;47.080;9.476;2023-11-21T12:47:54;4.00;;;1.30;;
42478;SDS011;28110;47.080;9.476;2023-11-21T12:50:24;3.28;;;0.80;;
42478;SDS011;28110;47.080;9.476;2023-11-21T12:52:58;2.78;;;1.00;;
42478;SDS011;28110;47.080;9.476;2023-11-21T12:55:24;1.92;;;0.80;;
42478;SDS011;28110;47.080;9.476;2023-11-21T12:57:52;2.35;;;0.73;;
42478;SDS011;28110;47.080;9.476;2023-11-21T13:00:31;2.10;;;0.90;;
42478;SDS011;28110;47.080;9.476;2023-11-21T13:02:58;1.10;;;0.80;;
42478;SDS011;28110;47.080;9.476;2023-11-21T13:05:28;3.83;;;1.13;;
42478;SDS011;28110;47.080;9.476;2023-11-21T13:08:05;0.95;;;0.70;;
42478;SDS011;28110;47.080;9.476;2023-11-21T13:10:33;4.70;;;1.27;;
42478;SDS011;28110;47.080;9.476;2023-11-21T13:13:02;3.65;;;1.00;;
42478;SDS011;28110;47.080;9.476;2023-11-21T13:15:33;1.83;;;1.00;;
42478;SDS011;28110;47.080;9.476;2023-11-21T13:18:03;2.35;;;0.93;;
42478;SDS011;28110;47.080;9.476;2023-11-21T13:20:29;2.27;;;1.00;;
42478;SDS011;28110;47.080;9.476;2023-11-21T13:22:57;5.63;;;1.10;;
42478;SDS011;28110;47.080;9.476;2023-11-21T13:25:24;1.90;;;0.95;;
42478;SDS011;28110;47.080;9.476;2023-11-21T13:27:54;0.95;;;0.88;;
42478;SDS011;28110;47.080;9.476;2023-11-21T13:30:20;2.08;;;1.30;;
42478;SDS011;28110;47.080;9.476;2023-11-21T13:32:52;4.15;;;1.85;;
42478;SDS011;28110;47.080;9.476;2023-11-21T13:35:27;4.00;;;1.90;;
42478;SDS011;28110;47.080;9.476;2023-11-21T13:37:57;1.33;;;0.85;;
42478;SDS011;28110;47.080;9.476;2023-11-21T13:40:38;3.05;;;0.70;;
42478;SDS011;28110;47.080;9.476;2023-11-21T13:43:09;4.05;;;0.70;;
42478;SDS011;28110;47.080;9.476;2023-11-21T13:45:37;4.95;;;1.00;;
42478;SDS011;28110;47.080;9.476;2023-11-21T13:48:07;2.20;;;0.80;;
42478;SDS011;28110;47.080;9.476;2023-11-21T13:50:37;2.40;;;0.90;;
42478;SDS011;28110;47.080;9.476;2023-11-21T13:53:02;2.42;;;1.17;;
42478;SDS011;28110;47.080;9.476;2023-11-21T13:55:43;4.27;;;1.90;;
42478;SDS011;28110;47.080;9.476;2023-11-21T13:58:10;2.17;;;1.08;;
42478;SDS011;28110;47.080;9.476;2023-11-21T14:00:41;2.10;;;1.40;;
42478;SDS011;28110;47.080;9.476;2023-11-21T14:03:10;3.33;;;1.25;;
42478;SDS011;28110;47.080;9.476;2023-11-21T14:05:44;3.42;;;1.13;;
42478;SDS011;28110;47.080;9.476;2023-11-21T14:08:12;1.90;;;1.10;;
42478;SDS011;28110;47.080;9.476;2023-11-21T14:10:41;1.70;;;1.00;;
42478;SDS011;28110;47.080;9.476;2023-11-21T14:13:15;2.70;;;1.38;;
42478;SDS011;28110;47.080;9.476;2023-11-21T14:15:41;1.73;;;1.00;;
42478;SDS011;28110;47.080;9.476;2023-11-21T14:18:08;2.92;;;1.27;;
42478;SDS011;28110;47.080;9.476;2023-11-21T14:20:38;3.25;;;0.95;;
42478;SDS011;28110;47.080;9.476;2023-11-21T14:23:04;2.20;;;1.60;;
42478;SDS011;28110;47.080;9.476;2023-11-21T14:25:32;4.97;;;2.63;;
42478;SDS011;28110;47.080;9.476;2023-11-21T14:27:59;2.70;;;1.80;;
42478;SDS011;28110;47.080;9.476;2023-11-21T14:30:25;5.07;;;1.60;;
42478;SDS011;28110;47.080;9.476;2023-11-21T14:32:52;4.47;;;1.88;;
42478;SDS011;28110;47.080;9.476;2023-11-21T14:35:18;3.83;;;1.77;;
42478;SDS011;28110;47.080;9.476;2023-11-21T14:37:44;4.25;;;2.60;;
42478;SDS011;28110;47.080;9.476;2023-11-21T14:40:11;4.03;;;2.47;;
42478;SDS011;28110;47.080;9.476;2023-11-21T14:42:40;1.80;;;1.08;;
42478;SDS011;28110;47.080;9.476;2023-11-21T14:45:07;1.80;;;1.20;;
42478;SDS011;28110;47.080;9.476;2023-11-21T14:47:33;2.20;;;0.90;;
42478;SDS011;28110;47.080;9.476;2023-11-21T14:50:00;2.50;;;1.10;;
42478;SDS011;28110;47.080;9.476;2023-11-21T14:52:44;1.30;;;0.70;;
42478;SDS011;28110;47.080;9.476;2023-11-21T14:55:24;2.58;;;0.98;;
42478;SDS011;28110;47.080;9.476;2023-11-21T14:58:09;3.45;;;0.80;;
42478;SDS011;28110;47.080;9.476;2023-11-21T15:00:38;1.63;;;0.80;;
42478;SDS011;28110;47.080;9.476;2023-11-21T15:03:10;1.30;;;0.70;;